createdAt,value
2023-04-16T00:01:07.901Z,102012.66
2023-04-16T00:03:36.447Z,102018.75
2023-04-16T00:06:04.979Z,102015.81
2023-04-16T00:08:33.281Z,102014.72
2023-04-16T00:11:01.365Z,102010.97
2023-04-16T00:13:29.674Z,102010.13
2023-04-16T00:15:59.215Z,102019.03
2023-04-16T00:18:27.734Z,102014.47
2023-04-16T00:20:55.989Z,102014.00
2023-04-16T00:23:25.338Z,102018.34
2023-04-16T00:25:53.948Z,102023.47
2023-04-16T00:28:22.068Z,102014.72
2023-04-16T00:30:50.341Z,102013.75
2023-04-16T00:33:20.313Z,102022.47
2023-04-16T00:35:49.380Z,102013.59
2023-04-16T00:38:17.654Z,102017.09
2023-04-16T00:40:45.946Z,102021.22
2023-04-16T00:43:23.134Z,102016.66
2023-04-16T00:45:52.002Z,102022.78
2023-04-16T00:48:21.902Z,102019.00
2023-04-16T00:50:50.297Z,102016.25
2023-04-16T00:53:18.504Z,102020.41
2023-04-16T00:55:47.112Z,102012.31
2023-04-16T00:58:16.007Z,102014.84
2023-04-16T01:00:44.159Z,102008.75
2023-04-16T01:03:12.792Z,102006.22
2023-04-16T01:05:42.577Z,102001.09
2023-04-16T01:08:17.985Z,102000.25
2023-04-16T01:10:46.757Z,102000.53
2023-04-16T01:13:15.266Z,102004.72
2023-04-16T01:15:43.436Z,101999.28
2023-04-16T01:18:17.605Z,101993.03
2023-04-16T01:20:47.822Z,101999.28
2023-04-16T01:23:16.218Z,101990.38
2023-04-16T01:25:44.519Z,101999.97
2023-04-16T01:28:12.729Z,102002.47
2023-04-16T01:30:41.611Z,101994.56
2023-04-16T01:33:11.171Z,101999.13
2023-04-16T01:35:39.464Z,102001.94
2023-04-16T01:38:10.071Z,102000.94
2023-04-16T01:40:39.195Z,102000.53
2023-04-16T01:43:07.322Z,101999.56
2023-04-16T01:45:36.288Z,101999.56
2023-04-16T01:48:05.584Z,101992.50
2023-04-16T01:50:34.563Z,101995.97
2023-04-16T01:53:05.166Z,102002.91
2023-04-16T01:55:35.667Z,102001.09
2023-04-16T01:58:03.877Z,101999.44
2023-04-16T02:00:32.070Z,102002.91
2023-04-16T02:03:00.631Z,101993.44
2023-04-16T02:05:28.879Z,101990.69
2023-04-16T02:07:57.009Z,101999.44
2023-04-16T02:10:25.176Z,101997.91
2023-04-16T02:12:54.697Z,102001.25
2023-04-16T02:15:23.991Z,101997.63
2023-04-16T02:17:56.815Z,101999.28
2023-04-16T02:20:25.198Z,101990.53
2023-04-16T02:22:53.366Z,101996.66
2023-04-16T02:25:24.510Z,102001.66
2023-04-16T02:27:52.676Z,102002.47
2023-04-16T02:30:22.462Z,102000.81
2023-04-16T02:32:51.000Z,101993.75
2023-04-16T02:35:19.278Z,101997.22
2023-04-16T02:37:47.569Z,102003.16
2023-04-16T02:40:16.455Z,101992.75
2023-04-16T02:42:44.598Z,101992.91
2023-04-16T02:45:13.521Z,101995.25
2023-04-16T02:47:43.129Z,101990.69
2023-04-16T02:50:11.934Z,101992.34
2023-04-16T02:52:40.004Z,101997.75
2023-04-16T02:55:09.137Z,102001.22
2023-04-16T02:57:37.313Z,102001.22
2023-04-16T03:00:06.331Z,101993.16
2023-04-16T03:02:34.560Z,101999.41
2023-04-16T03:05:04.313Z,101993.31
2023-04-16T03:07:32.514Z,101989.84
2023-04-16T03:10:00.714Z,101979.81
2023-04-16T03:12:28.896Z,101983.59
2023-04-16T03:14:57.189Z,101978.97
2023-04-16T03:17:25.459Z,101978.00
2023-04-16T03:19:53.725Z,101971.06
2023-04-16T03:22:23.292Z,101980.63
2023-04-16T03:24:51.684Z,101980.94
2023-04-16T03:27:19.715Z,101980.94
2023-04-16T03:29:47.862Z,101987.06
2023-04-16T03:32:16.131Z,101988.72
2023-04-16T03:34:44.271Z,101986.06
2023-04-16T03:37:13.084Z,101982.75
2023-04-16T03:39:43.001Z,101990.53
2023-04-16T03:42:11.284Z,101985.25
2023-04-16T03:44:39.446Z,101982.59
2023-04-16T03:47:07.549Z,101985.91
2023-04-16T03:49:35.758Z,101987.63
2023-04-16T03:52:03.985Z,101984.00
2023-04-16T03:54:32.096Z,101984.81
2023-04-16T03:57:01.646Z,101972.59
2023-04-16T03:59:29.760Z,101979.53
2023-04-16T04:01:58.010Z,101973.44
2023-04-16T04:04:26.299Z,101964.53
2023-04-16T04:06:54.584Z,101965.66
2023-04-16T04:09:22.798Z,101962.03
2023-04-16T04:11:52.021Z,101962.03
2023-04-16T04:14:21.676Z,101954.13
2023-04-16T04:16:49.911Z,101957.59
2023-04-16T04:19:18.045Z,101953.44
2023-04-16T04:21:46.152Z,101948.03
2023-04-16T04:24:14.368Z,101952.31
2023-04-16T04:26:42.822Z,101954.81
2023-04-16T04:29:10.995Z,101956.47
2023-04-16T04:31:41.118Z,101946.88
2023-04-16T04:34:09.295Z,101954.69
2023-04-16T04:36:37.405Z,101948.69
2023-04-16T04:39:05.710Z,101952.16
2023-04-16T04:41:34.324Z,101955.13
2023-04-16T04:44:02.823Z,101956.06
2023-04-16T04:46:30.974Z,101951.63
2023-04-16T04:49:00.431Z,101953.44
2023-04-16T04:51:29.101Z,101949.69
2023-04-16T04:53:57.247Z,101956.88
2023-04-16T04:56:25.695Z,101954.25
2023-04-16T04:58:53.900Z,101949.84
2023-04-16T05:01:22.517Z,101958.69
2023-04-16T05:03:51.040Z,101956.06
2023-04-16T05:06:20.751Z,101959.53
2023-04-16T05:08:49.047Z,101964.81
2023-04-16T05:11:17.310Z,101959.53
2023-04-16T05:13:45.465Z,101965.78
2023-04-16T05:16:13.700Z,101965.78
2023-04-16T05:18:41.913Z,101972.72
2023-04-16T05:21:10.076Z,101971.78
2023-04-16T05:23:39.690Z,101981.63
2023-04-16T05:26:07.727Z,101974.41
2023-04-16T05:28:36.297Z,101976.22
2023-04-16T05:31:04.633Z,101966.50
2023-04-16T05:33:32.881Z,101975.38
2023-04-16T05:36:01.088Z,101975.53
2023-04-16T05:38:29.358Z,101978.72
2023-04-16T05:40:59.678Z,101973.44
2023-04-16T05:43:27.847Z,101974.41
2023-04-16T05:45:56.376Z,101976.91
2023-04-16T05:48:24.519Z,101982.03
2023-04-16T05:50:52.683Z,101981.06
2023-04-16T05:53:20.812Z,101978.44
2023-04-16T05:55:49.293Z,101966.06
2023-04-16T05:58:18.703Z,101976.31
2023-04-16T06:00:46.893Z,101969.38
2023-04-16T06:03:15.241Z,101974.22
2023-04-16T06:05:43.490Z,101972.84
2023-04-16T06:08:12.122Z,101984.13
2023-04-16T06:10:40.848Z,101983.97
2023-04-16T06:13:08.905Z,101974.22
2023-04-16T06:15:38.568Z,101975.88
2023-04-16T06:18:06.855Z,101980.91
2023-04-16T06:20:35.209Z,101978.09
2023-04-16T06:23:03.480Z,101982.13
2023-04-16T06:25:31.604Z,101976.69
2023-04-16T06:27:59.738Z,101978.06
2023-04-16T06:30:27.987Z,101982.41
2023-04-16T06:32:57.626Z,101982.41
2023-04-16T06:35:25.813Z,101978.78
2023-04-16T06:37:53.984Z,101974.31
2023-04-16T06:40:22.168Z,101977.13
2023-04-16T06:42:50.338Z,101983.06
2023-04-16T06:45:18.642Z,101988.34
2023-04-16T06:47:48.161Z,101981.41
2023-04-16T06:50:17.913Z,101977.50
2023-04-16T06:52:46.358Z,101974.72
2023-04-16T06:55:14.504Z,101979.72
2023-04-16T06:57:42.692Z,101977.91
2023-04-16T07:00:11.963Z,101974.28
2023-04-16T07:02:40.223Z,101971.91
2023-04-16T07:05:09.096Z,101979.84
2023-04-16T07:07:38.682Z,101967.31
2023-04-16T07:10:08.364Z,101975.09
2023-04-16T07:12:36.554Z,101976.63
2023-04-16T07:15:05.616Z,101973.00
2023-04-16T07:17:34.082Z,101985.06
2023-04-16T07:20:02.246Z,101985.50
2023-04-16T07:22:30.386Z,101988.31
2023-04-16T07:25:00.040Z,101992.59
2023-04-16T07:27:28.184Z,101977.47
2023-04-16T07:29:56.481Z,101981.47
2023-04-16T07:32:24.749Z,101973.94
2023-04-16T07:34:53.043Z,101978.25
2023-04-16T07:37:21.252Z,101985.88
2023-04-16T07:39:49.430Z,101982.91
2023-04-16T07:42:18.915Z,101977.34
2023-04-16T07:44:47.073Z,101987.16
2023-04-16T07:47:15.296Z,101990.34
2023-04-16T07:49:43.438Z,101983.13
2023-04-16T07:52:11.611Z,101984.88
2023-04-16T07:54:39.789Z,101987.09
2023-04-16T07:57:07.875Z,101975.19
2023-04-16T07:59:37.488Z,101972.81
2023-04-16T08:02:06.292Z,101972.34
2023-04-16T08:04:34.822Z,101969.94
2023-04-16T08:07:03.064Z,101972.13
2023-04-16T08:09:31.146Z,101965.72
2023-04-16T08:11:59.335Z,101970.56
2023-04-16T08:14:27.562Z,101968.56
2023-04-16T08:16:57.339Z,101965.78
2023-04-16T08:19:25.759Z,101974.41
2023-04-16T08:21:53.981Z,101968.94
2023-04-16T08:24:22.208Z,101963.38
2023-04-16T08:26:50.285Z,101964.84
2023-04-16T08:29:18.907Z,101970.16
2023-04-16T08:31:47.247Z,101968.50
2023-04-16T08:34:16.849Z,101970.16
2023-04-16T08:36:46.134Z,101968.50
2023-04-16T08:39:14.234Z,101972.66
2023-04-16T08:41:44.861Z,101973.50
2023-04-16T08:44:20.957Z,101964.56
2023-04-16T08:46:49.285Z,101969.56
2023-04-16T08:49:19.388Z,101974.53
2023-04-16T08:51:52.483Z,101970.59
2023-04-16T08:54:32.630Z,101972.25
2023-04-16T08:57:01.648Z,101974.59
2023-04-16T08:59:30.713Z,101982.53
2023-04-16T09:02:00.040Z,101978.22
2023-04-16T09:04:30.528Z,101980.59
2023-04-16T09:07:00.021Z,101985.56
2023-04-16T09:09:28.686Z,101987.59
2023-04-16T09:11:57.684Z,101986.38
2023-04-16T09:14:26.378Z,101989.47
2023-04-16T09:16:55.706Z,101975.47
2023-04-16T09:19:24.678Z,101982.69
2023-04-16T09:21:54.299Z,101983.25
2023-04-16T09:24:23.201Z,101974.84
2023-04-16T09:26:52.929Z,101970.91
2023-04-16T09:29:44.859Z,101969.94
2023-04-16T09:32:13.761Z,101970.31
2023-04-16T09:34:59.109Z,101969.69
2023-04-16T09:37:29.942Z,101963.25
2023-04-16T09:39:59.435Z,101961.63
2023-04-16T09:42:29.478Z,101961.94
2023-04-16T09:45:00.355Z,101961.78
2023-04-16T09:47:41.191Z,101970.75
2023-04-16T09:50:11.937Z,101969.13
2023-04-16T09:52:45.622Z,101972.91
2023-04-16T09:55:13.825Z,101972.25
2023-04-16T09:57:42.044Z,101970.13
2023-04-16T10:00:11.891Z,101979.72
2023-04-16T10:02:42.711Z,101981.03
2023-04-16T10:05:16.912Z,101985.84
2023-04-16T10:07:48.817Z,101981.03
2023-04-16T10:10:17.232Z,101984.69
2023-04-16T10:12:45.338Z,101981.06
2023-04-16T10:15:13.386Z,101992.81
2023-04-16T10:17:41.710Z,101999.28
2023-04-16T10:20:10.697Z,102001.94
2023-04-16T10:22:39.334Z,102010.56
2023-04-16T10:25:10.132Z,102009.75
2023-04-16T10:27:38.533Z,102014.22
2023-04-16T10:30:08.925Z,102015.22
2023-04-16T10:32:38.467Z,102020.03
2023-04-16T10:35:07.619Z,102023.34
2023-04-16T10:37:35.750Z,102024.84
2023-04-16T10:40:25.622Z,102024.16
2023-04-16T10:43:01.671Z,102025.00
2023-04-16T10:45:33.986Z,102031.00
2023-04-16T10:48:06.512Z,102031.50
2023-04-16T10:50:37.855Z,102036.81
2023-04-16T10:53:20.341Z,102034.47
2023-04-16T10:56:15.652Z,102044.75
2023-04-16T10:58:43.883Z,102050.22
2023-04-16T11:01:16.985Z,102046.56
2023-04-16T11:03:48.072Z,102055.03
2023-04-16T11:06:19.446Z,102053.69
2023-04-16T11:08:54.507Z,102045.47
2023-04-16T11:11:24.949Z,102049.19
2023-04-16T11:13:57.510Z,102044.16
2023-04-16T11:16:27.968Z,102042.97
2023-04-16T11:18:57.255Z,102047.03
2023-04-16T11:21:26.773Z,102041.34
2023-04-16T11:23:55.223Z,102044.78
2023-04-16T11:26:29.320Z,102050.16
2023-04-16T11:28:59.014Z,102047.84
2023-04-16T11:31:27.734Z,102046.66
2023-04-16T11:33:57.823Z,102055.28
2023-04-16T11:36:27.714Z,102051.66
2023-04-16T11:39:04.574Z,102058.44
2023-04-16T11:41:34.278Z,102061.16
2023-04-16T11:44:17.593Z,102065.22
2023-04-16T11:46:45.872Z,102070.63
2023-04-16T11:49:14.172Z,102075.28
2023-04-16T11:51:42.536Z,102081.53
2023-04-16T11:54:12.195Z,102091.84
2023-04-16T11:56:47.901Z,102091.28
2023-04-16T11:59:17.651Z,102107.09
2023-04-16T12:01:48.656Z,102108.03
2023-04-16T12:04:18.423Z,102115.00
2023-04-16T12:07:09.293Z,102118.22
2023-04-16T12:09:40.549Z,102130.59
2023-04-16T12:12:26.219Z,102140.63
2023-04-16T12:14:56.965Z,102140.97
2023-04-16T12:17:25.278Z,102145.16
2023-04-16T12:19:56.919Z,102138.50
2023-04-16T12:22:29.454Z,102138.69
2023-04-16T12:25:00.122Z,102132.41
2023-04-16T12:27:43.275Z,102129.09
2023-04-16T12:30:12.158Z,102126.97
2023-04-16T12:32:40.550Z,102134.00
2023-04-16T12:35:09.451Z,102127.66
2023-04-16T12:37:37.639Z,102134.47
2023-04-16T12:40:07.186Z,102140.69
2023-04-16T12:42:37.236Z,102142.91
2023-04-16T12:45:06.979Z,102145.94
2023-04-16T12:47:35.117Z,102143.00
2023-04-16T12:50:03.420Z,102148.78
2023-04-16T12:52:31.525Z,102155.31
2023-04-16T12:54:59.704Z,102155.06
2023-04-16T12:57:28.861Z,102168.78
2023-04-16T12:59:59.235Z,102168.84
2023-04-16T13:02:27.497Z,102166.56
2023-04-16T13:04:56.112Z,102170.16
2023-04-16T13:07:24.907Z,102169.69
2023-04-16T13:09:53.119Z,102164.44
2023-04-16T13:12:21.179Z,102174.19
2023-04-16T13:14:49.236Z,102180.72
2023-04-16T13:17:18.721Z,102181.84
2023-04-16T13:19:46.887Z,102183.59
2023-04-16T13:22:15.097Z,102179.28
2023-04-16T13:24:44.723Z,102184.59
2023-04-16T13:27:13.945Z,102187.72
2023-04-16T13:29:42.018Z,102186.47
2023-04-16T13:32:10.205Z,102189.22
2023-04-16T13:34:39.773Z,102184.69
2023-04-16T13:37:07.863Z,102190.84
2023-04-16T13:39:35.971Z,102187.38
2023-04-16T13:42:04.124Z,102187.75
2023-04-16T13:44:32.212Z,102189.19
2023-04-16T13:47:00.482Z,102189.47
2023-04-16T13:49:28.816Z,102187.81
2023-04-16T13:51:58.317Z,102185.78
2023-04-16T13:54:26.550Z,102189.59
2023-04-16T13:56:54.883Z,102198.28
2023-04-16T13:59:23.064Z,102196.31
2023-04-16T14:01:51.262Z,102191.97
2023-04-16T14:04:19.529Z,102189.59
2023-04-16T14:06:47.804Z,102193.72
2023-04-16T14:09:17.418Z,102187.56
2023-04-16T14:11:46.050Z,102192.69
2023-04-16T14:14:14.273Z,102187.25
2023-04-16T14:16:42.528Z,102182.28
2023-04-16T14:19:11.116Z,102193.44
2023-04-16T14:21:39.636Z,102196.56
2023-04-16T14:24:09.353Z,102193.69
2023-04-16T14:26:38.869Z,102203.03
2023-04-16T14:29:06.925Z,102196.03
2023-04-16T14:31:35.058Z,102195.63
2023-04-16T14:34:03.677Z,102193.72
2023-04-16T14:36:32.343Z,102185.88
2023-04-16T14:39:00.633Z,102187.91
2023-04-16T14:41:28.714Z,102185.25
2023-04-16T14:43:58.552Z,102186.00
2023-04-16T14:46:27.218Z,102182.66
2023-04-16T14:48:55.573Z,102178.06
2023-04-16T14:51:23.733Z,102188.09
2023-04-16T14:53:51.936Z,102189.09
2023-04-16T14:56:20.192Z,102186.59
2023-04-16T14:58:48.229Z,102186.09
2023-04-16T15:01:17.877Z,102188.56
2023-04-16T15:03:46.243Z,102179.94
2023-04-16T15:06:14.815Z,102174.22
2023-04-16T15:08:42.995Z,102177.84
2023-04-16T15:11:11.184Z,102174.16
2023-04-16T15:13:39.259Z,102166.69
2023-04-16T15:16:07.519Z,102174.00
2023-04-16T15:18:37.524Z,102178.03
2023-04-16T15:21:05.661Z,102171.84
2023-04-16T15:23:33.795Z,102178.34
2023-04-16T15:26:15.631Z,102171.91
2023-04-16T15:28:43.778Z,102167.22
2023-04-16T15:31:12.339Z,102169.28
2023-04-16T15:33:42.066Z,102175.53
2023-04-16T15:36:11.449Z,102171.59
2023-04-16T15:38:39.560Z,102175.28
2023-04-16T15:41:07.829Z,102167.25
2023-04-16T15:43:35.968Z,102161.94
2023-04-16T15:46:04.279Z,102167.91
2023-04-16T15:48:32.501Z,102170.16
2023-04-16T15:51:02.081Z,102169.63
2023-04-16T15:53:30.370Z,102158.69
2023-04-16T15:55:58.604Z,102163.53
2023-04-16T15:58:26.708Z,102160.53
2023-04-16T16:00:54.842Z,102159.69
2023-04-16T16:03:23.335Z,102164.78
2023-04-16T16:05:51.653Z,102161.97
2023-04-16T16:08:21.255Z,102155.81
2023-04-16T16:10:49.371Z,102160.78
2023-04-16T16:14:11.842Z,102147.22
2023-04-16T16:16:40.381Z,102154.00
2023-04-16T16:19:08.563Z,102145.53
2023-04-16T16:21:37.083Z,102148.47
2023-04-16T16:24:07.090Z,102153.78
2023-04-16T16:26:35.239Z,102151.44
2023-04-16T16:29:03.414Z,102154.56
2023-04-16T16:31:31.686Z,102148.56
2023-04-16T16:33:59.853Z,102149.03
2023-04-16T16:36:28.146Z,102139.94
2023-04-16T16:38:56.708Z,102148.72
2023-04-16T16:41:26.458Z,102149.44
2023-04-16T16:43:56.340Z,102141.47
2023-04-16T16:46:24.650Z,102144.41
2023-04-16T16:48:52.765Z,102141.22
2023-04-16T16:51:21.252Z,102129.97
2023-04-16T16:53:49.522Z,102132.63
2023-04-16T16:56:17.609Z,102127.97
2023-04-16T16:58:47.517Z,102119.84
2023-04-16T17:01:15.750Z,102119.84
2023-04-16T17:03:44.144Z,102127.44
2023-04-16T17:06:12.371Z,102129.13
2023-04-16T17:08:40.933Z,102120.19
2023-04-16T17:11:09.059Z,102118.19
2023-04-16T17:13:37.313Z,102115.53
2023-04-16T17:16:07.239Z,102122.91
2023-04-16T17:18:37.785Z,102108.31
2023-04-16T17:21:06.337Z,102104.34
2023-04-16T17:23:34.600Z,102108.00
2023-04-16T17:26:02.891Z,102114.00
2023-04-16T17:28:31.124Z,102114.34
2023-04-16T17:30:59.617Z,102100.91
2023-04-16T17:33:29.195Z,102114.69
2023-04-16T17:35:57.339Z,102112.69
2023-04-16T17:38:25.555Z,102117.69
2023-04-16T17:40:53.832Z,102116.69
2023-04-16T17:43:21.985Z,102106.72
2023-04-16T17:45:50.602Z,102105.06
2023-04-16T17:48:18.737Z,102103.25
2023-04-16T17:50:48.634Z,102101.44
2023-04-16T17:53:16.825Z,102100.94
2023-04-16T17:55:52.416Z,102112.53
2023-04-16T17:58:21.796Z,102112.69
2023-04-16T18:00:51.150Z,102106.72
2023-04-16T18:03:21.404Z,102114.16
2023-04-16T18:05:51.825Z,102117.31
2023-04-16T18:08:20.187Z,102115.97
2023-04-16T18:10:48.417Z,102123.56
2023-04-16T18:13:16.721Z,102108.66
2023-04-16T18:15:45.203Z,102123.88
2023-04-16T18:18:13.567Z,102121.53
2023-04-16T18:20:42.296Z,102125.16
2023-04-16T18:23:11.874Z,102128.97
2023-04-16T18:25:40.358Z,102129.63
2023-04-16T18:28:09.889Z,102136.09
2023-04-16T18:30:40.385Z,102136.41
2023-04-16T18:33:34.179Z,102140.06
2023-04-16T18:35:56.995Z,102150.81
2023-04-16T18:38:26.540Z,102148.31
2023-04-16T18:40:54.858Z,102146.81
2023-04-16T18:43:23.933Z,102146.81
2023-04-16T18:45:52.104Z,102153.94
2023-04-16T18:48:20.338Z,102151.44
2023-04-16T18:50:48.564Z,102152.59
2023-04-16T18:53:16.746Z,102151.78
2023-04-16T18:55:46.459Z,102150.25
2023-04-16T18:58:14.677Z,102161.84
2023-04-16T19:00:42.832Z,102160.31
2023-04-16T19:03:11.044Z,102162.31
2023-04-16T19:05:39.234Z,102166.78
2023-04-16T19:08:07.394Z,102163.44
2023-04-16T19:10:35.502Z,102159.31
2023-04-16T19:13:05.070Z,102166.72
2023-04-16T19:15:34.788Z,102161.59
2023-04-16T19:18:03.138Z,102175.31
2023-04-16T19:20:31.421Z,102167.50
2023-04-16T19:22:59.829Z,102173.13
2023-04-16T19:25:27.973Z,102173.28
2023-04-16T19:27:57.017Z,102167.59
2023-04-16T19:30:26.599Z,102178.66
2023-04-16T19:32:55.489Z,102179.66
2023-04-16T19:35:24.092Z,102176.34
2023-04-16T19:37:52.900Z,102177.34
2023-04-16T19:40:21.296Z,102177.78
2023-04-16T19:42:49.630Z,102178.75
2023-04-16T19:45:18.435Z,102181.72
2023-04-16T19:47:51.301Z,102185.81
2023-04-16T19:50:19.537Z,102188.59
2023-04-16T19:52:47.789Z,102189.88
2023-04-16T19:55:16.374Z,102197.16
2023-04-16T19:57:44.570Z,102197.63
2023-04-16T20:00:13.678Z,102201.41
2023-04-16T20:02:42.139Z,102193.06
2023-04-16T20:05:12.037Z,102202.16
2023-04-16T20:07:40.334Z,102203.59
2023-04-16T20:10:09.802Z,102210.84
2023-04-16T20:12:38.303Z,102208.53
2023-04-16T20:15:07.396Z,102203.34
2023-04-16T20:17:35.694Z,102211.91
2023-04-16T20:20:10.388Z,102216.50
2023-04-16T20:22:40.974Z,102214.19
2023-04-16T20:25:10.107Z,102211.94
2023-04-16T20:27:38.661Z,102211.13
2023-04-16T20:30:08.205Z,102220.16
2023-04-16T20:32:36.516Z,102219.50
2023-04-16T20:35:10.489Z,102218.94
2023-04-16T20:37:42.349Z,102225.34
2023-04-16T20:40:15.182Z,102225.69
2023-04-16T20:42:46.502Z,102224.84
2023-04-16T20:45:14.927Z,102230.25
2023-04-16T20:47:44.534Z,102228.59
2023-04-16T20:50:13.815Z,102233.22
2023-04-16T20:52:43.601Z,102231.84
2023-04-16T20:55:12.093Z,102226.00
2023-04-16T20:57:40.391Z,102239.53
2023-04-16T21:00:12.412Z,102238.69
2023-04-16T21:02:40.963Z,102241.66
2023-04-16T21:05:13.915Z,102236.34
2023-04-16T21:07:43.931Z,102228.84
2023-04-16T21:10:12.640Z,102243.03
2023-04-16T21:12:40.836Z,102245.16
2023-04-16T21:15:09.603Z,102249.47
2023-04-16T21:17:37.884Z,102238.06
2023-04-16T21:20:10.730Z,102240.81
2023-04-16T21:22:38.844Z,102245.44
2023-04-16T21:25:09.877Z,102238.34
2023-04-16T21:27:38.273Z,102241.13
2023-04-16T21:30:07.413Z,102230.72
2023-04-16T21:32:35.553Z,102243.78
2023-04-16T21:35:03.974Z,102241.13
2023-04-16T21:37:32.196Z,102245.59
2023-04-16T21:40:00.615Z,102244.78
2023-04-16T21:42:31.514Z,102249.22
2023-04-16T21:45:00.038Z,102247.84
2023-04-16T21:47:28.359Z,102249.50
2023-04-16T21:49:56.693Z,102246.16
2023-04-16T21:52:24.883Z,102250.63
2023-04-16T21:54:53.060Z,102248.81
2023-04-16T21:57:21.314Z,102243.81
2023-04-16T21:59:50.927Z,102247.28
2023-04-16T22:02:19.155Z,102253.69
2023-04-16T22:04:47.522Z,102260.94
2023-04-16T22:07:17.019Z,102260.13
2023-04-16T22:09:45.402Z,102263.03
2023-04-16T22:12:14.032Z,102253.28
2023-04-16T22:14:52.265Z,102260.53
2023-04-16T22:17:31.360Z,102259.72
2023-04-16T22:20:00.760Z,102259.00
2023-04-16T22:22:29.036Z,102256.38
2023-04-16T22:24:57.334Z,102259.84
2023-04-16T22:27:25.604Z,102258.19
2023-04-16T22:29:53.758Z,102250.41
2023-04-16T22:32:22.200Z,102255.97
2023-04-16T22:34:52.337Z,102254.31
2023-04-16T22:37:20.671Z,102255.56
2023-04-16T22:39:48.794Z,102254.56
2023-04-16T22:42:17.019Z,102258.19
2023-04-16T22:44:45.652Z,102254.72
2023-04-16T22:47:25.491Z,102265.44
2023-04-16T22:49:55.776Z,102256.81
2023-04-16T22:52:24.105Z,102256.97
2023-04-16T22:54:52.305Z,102255.16
2023-04-16T22:57:21.269Z,102262.25
2023-04-16T22:59:49.484Z,102267.38
2023-04-16T23:02:18.013Z,102264.06
2023-04-16T23:04:48.036Z,102262.41
2023-04-16T23:07:17.712Z,102265.88
2023-04-16T23:09:45.828Z,102270.34
2023-04-16T23:12:14.036Z,102269.63
2023-04-16T23:14:45.962Z,102269.63
2023-04-16T23:17:14.838Z,102274.91
2023-04-16T23:19:42.905Z,102269.94
2023-04-16T23:22:11.050Z,102265.59
2023-04-16T23:24:40.985Z,102269.06
2023-04-16T23:27:09.066Z,102270.03
2023-04-16T23:29:37.213Z,102270.19
2023-04-16T23:32:05.637Z,102266.84
2023-04-16T23:34:33.727Z,102282.69
2023-04-16T23:37:02.008Z,102273.25
2023-04-16T23:39:30.124Z,102275.06
2023-04-16T23:42:00.657Z,102274.38
2023-04-16T23:44:28.976Z,102280.47
2023-04-16T23:46:57.457Z,102284.09
2023-04-16T23:49:26.297Z,102280.22
2023-04-16T23:51:54.749Z,102280.50
2023-04-16T23:54:22.925Z,102284.41
2023-04-16T23:56:51.268Z,102280.78
2023-04-16T23:59:21.005Z,102284.41
